Time;durP1;ratioP1;P1;durP2;ratioP2;P2;SDS_P1;SDS_P2;PMS_P1;PMS_P2;Temp;Humidity;BMP_temperature;BMP_pressure;BME280_temperature;BME280_humidity;BME280_pressure;Samples;Min_cycle;Max_cycle;Signal;HPM_P1;HPM_P2
2022/07/12 00:02:03;;;;;;;12.27;11.48;;;;;;;14.64;53.32;101176.00;5022488;28;20034;-74
2022/07/12 00:04:28;;;;;;;11.82;10.95;;;;;;;14.63;53.54;101171.59;5024782;28;20041;-74
2022/07/12 00:06:54;;;;;;;12.32;11.32;;;;;;;14.62;53.51;101177.81;5024238;28;20040;-74
2022/07/12 00:09:19;;;;;;;14.10;13.07;;;;;;;14.61;53.61;101176.03;5022051;28;20067;-74
2022/07/12 00:11:45;;;;;;;13.90;13.00;;;;;;;14.61;53.48;101181.34;5022073;28;20084;-74
2022/07/12 00:14:10;;;;;;;19.73;18.60;;;;;;;14.60;53.47;101180.47;5026592;28;20048;-75
2022/07/12 00:16:35;;;;;;;16.65;15.60;;;;;;;14.63;53.31;101179.56;5022546;28;20041;-74
2022/07/12 00:19:01;;;;;;;12.60;11.80;;;;;;;14.68;53.72;101180.38;5024303;28;20041;-74
2022/07/12 00:21:27;;;;;;;11.93;10.98;;;;;;;14.70;54.67;101175.94;5022645;28;20543;-74
2022/07/12 00:23:52;;;;;;;14.77;13.82;;;;;;;14.61;55.40;101176.03;5023340;28;20484;-74
2022/07/12 00:26:17;;;;;;;12.05;11.35;;;;;;;14.60;54.92;101172.53;5024679;28;20041;-75
2022/07/12 00:28:43;;;;;;;10.32;9.57;;;;;;;14.59;54.83;101173.44;5022046;28;20034;-74
2022/07/12 00:31:08;;;;;;;11.27;10.40;;;;;;;14.57;54.77;101177.00;5024739;28;20047;-74
2022/07/12 00:33:33;;;;;;;10.63;9.93;;;;;;;14.52;54.78;101178.81;5027483;28;20068;-74
2022/07/12 00:35:58;;;;;;;13.07;12.15;;;;;;;14.48;55.20;101175.28;5028426;28;20033;-74
2022/07/12 00:38:24;;;;;;;19.02;17.90;;;;;;;14.44;56.62;101177.09;5021375;28;20084;-75
2022/07/12 00:40:49;;;;;;;16.30;15.40;;;;;;;14.40;55.62;101172.72;5006816;28;20041;-74
2022/07/12 00:43:15;;;;;;;18.73;17.48;;;;;;;14.37;55.76;101183.38;5030361;28;20052;-74
2022/07/12 00:45:41;;;;;;;18.67;17.42;;;;;;;14.30;56.00;101186.13;5023550;28;20034;-74
2022/07/12 00:48:07;;;;;;;21.20;20.02;;;;;;;14.23;56.54;101180.88;5024781;28;20029;-75
2022/07/12 00:50:32;;;;;;;21.75;20.30;;;;;;;14.17;56.60;101185.38;5001782;28;20109;-74
2022/07/12 00:52:58;;;;;;;29.63;27.95;;;;;;;13.98;57.71;101184.69;5022189;28;20125;-75
2022/07/12 00:55:24;;;;;;;26.50;25.00;;;;;;;13.92;57.41;101188.28;5027905;28;20042;-74
2022/07/12 00:57:50;;;;;;;26.60;24.80;;;;;;;13.85;57.35;101189.22;5021789;28;20052;-74
2022/07/12 01:00:22;;;;;;;24.25;22.90;;;;;;;13.76;58.26;101184.88;5024730;28;20120;-74
2022/07/12 01:02:48;;;;;;;23.80;22.48;;;;;;;13.69;58.18;101190.25;5022006;28;20045;-74
2022/07/12 01:05:13;;;;;;;15.98;15.02;;;;;;;13.61;58.94;101197.41;5023020;28;20064;-74
2022/07/12 01:07:40;;;;;;;16.38;15.48;;;;;;;13.54;59.62;101199.19;5020325;28;20038;-74
2022/07/12 01:10:06;;;;;;;25.25;23.95;;;;;;;13.49;60.49;101199.25;5024189;28;20053;-74
2022/07/12 01:12:32;;;;;;;21.38;19.88;;;;;;;13.33;62.32;101200.25;5020583;28;20048;-74
2022/07/12 01:14:58;;;;;;;34.25;32.35;;;;;;;13.18;62.18;101209.16;5025024;28;20042;-74
2022/07/12 01:17:26;;;;;;;33.13;31.52;;;;;;;13.16;62.05;101214.44;5023001;28;20507;-74
2022/07/12 01:19:53;;;;;;;35.78;33.78;;;;;;;13.15;62.57;101198.53;5023174;28;20045;-74
2022/07/12 01:22:20;;;;;;;41.15;38.53;;;;;;;13.12;62.36;101204.75;5020855;28;20076;-74
2022/07/12 01:24:46;;;;;;;43.78;41.47;;;;;;;13.23;62.23;101201.16;5024201;28;20038;-74
2022/07/12 01:27:12;;;;;;;30.08;28.58;;;;;;;13.15;62.38;101204.75;5021474;28;20034;-74
2022/07/12 01:29:39;;;;;;;38.85;36.92;;;;;;;13.14;63.28;101210.06;5022893;28;20179;-74
2022/07/12 01:32:24;;;;;;;63.58;60.45;;;;;;;13.10;64.06;101214.50;5021479;28;20093;-74
2022/07/12 01:34:58;;;;;;;62.80;59.45;;;;;;;13.10;64.10;101208.31;5022262;28;20034;-74
2022/07/12 01:37:25;;;;;;;47.78;45.40;;;;;;;13.05;64.91;101212.78;5024097;28;20034;-74
2022/07/12 01:39:54;;;;;;;42.15;40.00;;;;;;;13.00;65.08;101212.78;5021103;28;20564;-74
2022/07/12 01:42:20;;;;;;;41.17;39.15;;;;;;;12.91;64.20;101212.81;5019955;28;20061;-74
2022/07/12 01:44:49;;;;;;;72.80;69.40;;;;;;;12.88;66.37;101218.13;5025368;28;20038;-75
2022/07/12 01:47:14;;;;;;;57.50;54.72;;;;;;;12.80;66.53;101212.88;5025580;28;20037;-74
2022/07/12 01:49:39;;;;;;;68.25;64.97;;;;;;;12.61;67.64;101213.84;5008595;28;20102;-73
2022/07/12 01:52:12;;;;;;;65.97;62.90;;;;;;;12.61;66.94;101213.84;5100656;27;20719;-74
2022/07/12 01:54:38;;;;;;;47.35;45.00;;;;;;;12.66;66.29;101214.72;5098446;28;20039;-74
2022/07/12 01:57:04;;;;;;;43.58;41.42;;;;;;;12.69;66.08;101220.88;5099734;28;20036;-73
2022/07/12 01:59:30;;;;;;;36.65;34.08;;;;;;;12.77;65.14;101226.13;5078014;28;20087;-74
2022/07/12 02:01:56;;;;;;;29.15;27.70;;;;;;;12.82;65.15;101218.19;5056067;28;20045;-74
2022/07/12 02:04:22;;;;;;;33.47;31.85;;;;;;;12.86;64.39;101225.19;5059435;28;20035;-74
2022/07/12 02:06:48;;;;;;;51.97;49.50;;;;;;;12.83;64.93;101219.94;5057979;28;20486;-74
2022/07/12 02:09:14;;;;;;;38.72;36.22;;;;;;;12.83;65.02;101225.22;5056188;28;20029;-74
2022/07/12 02:11:40;;;;;;;64.75;61.60;;;;;;;12.83;64.73;101219.94;5059716;28;20390;-74
2022/07/12 02:14:05;;;;;;;68.10;64.72;;;;;;;12.71;66.91;101219.09;5059303;28;20045;-74
2022/07/12 02:16:31;;;;;;;41.90;39.58;;;;;;;12.61;67.71;101219.16;5060081;28;20094;-74
2022/07/12 02:18:57;;;;;;;35.75;33.95;;;;;;;12.47;67.96;101219.16;5075608;28;20048;-74
2022/07/12 02:21:22;;;;;;;42.63;40.42;;;;;;;12.27;69.53;101214.81;5057731;28;20491;-74
2022/07/12 02:23:47;;;;;;;41.63;39.42;;;;;;;12.05;70.45;101227.22;5061028;28;20091;-73
2022/07/12 02:26:13;;;;;;;48.78;46.45;;;;;;;12.10;68.22;101231.59;5063332;28;20044;-74
2022/07/12 02:28:38;;;;;;;46.15;43.85;;;;;;;12.17;68.37;101228.94;5056440;28;20041;-74
2022/07/12 02:31:04;;;;;;;54.75;52.00;;;;;;;12.30;67.70;101232.47;5058793;28;20403;-74
2022/07/12 02:33:29;;;;;;;44.60;42.33;;;;;;;12.37;68.97;101234.22;5056446;28;20079;-74
2022/07/12 02:35:55;;;;;;;52.40;49.70;;;;;;;12.37;69.48;101231.56;5058490;28;20032;-74
2022/07/12 02:38:21;;;;;;;53.47;50.88;;;;;;;12.32;69.71;101237.75;5068772;28;20087;-74
2022/07/12 02:40:53;;;;;;;54.13;51.42;;;;;;;12.23;71.79;101242.16;5056965;28;20044;-73
2022/07/12 02:43:24;;;;;;;49.38;46.92;;;;;;;12.34;72.01;101230.66;5058950;28;20032;-74
2022/07/12 02:45:50;;;;;;;52.55;49.97;;;;;;;12.36;72.36;101234.19;5057208;28;20044;-74
2022/07/12 02:48:15;;;;;;;57.67;54.95;;;;;;;12.38;72.15;101237.75;5057074;28;20029;-73
2022/07/12 02:50:41;;;;;;;62.47;59.53;;;;;;;12.39;71.25;101234.19;5058109;28;20502;-74
2022/07/12 02:53:08;;;;;;;49.88;47.55;;;;;;;12.40;72.17;101241.28;5057707;28;20055;-74
2022/07/12 02:55:33;;;;;;;62.55;59.58;;;;;;;12.35;72.98;101235.97;5058581;28;20041;-73
2022/07/12 02:57:59;;;;;;;59.17;56.25;;;;;;;12.37;71.80;101246.56;5060418;28;20086;-73
2022/07/12 03:00:24;;;;;;;42.22;40.05;;;;;;;12.35;71.93;101238.63;5056912;28;20033;-73
2022/07/12 03:02:49;;;;;;;54.97;52.38;;;;;;;12.33;72.38;101237.75;5047154;28;20112;-73
2022/07/12 03:05:15;;;;;;;36.42;34.58;;;;;;;12.31;72.12;101252.72;5044744;28;20043;-74
2022/07/12 03:07:41;;;;;;;61.13;58.00;;;;;;;12.32;72.65;101243.06;5038446;28;20037;-74
2022/07/12 03:10:06;;;;;;;39.60;37.55;;;;;;;12.31;71.95;101246.56;5041905;28;20037;-73
2022/07/12 03:12:32;;;;;;;55.13;52.28;;;;;;;12.28;72.84;101242.16;5044668;28;20439;-73
2022/07/12 03:14:57;;;;;;;53.42;50.80;;;;;;;12.09;74.35;101243.06;5043222;28;20029;-74
2022/07/12 03:17:23;;;;;;;65.05;61.70;;;;;;;11.93;74.23;101245.72;5043649;28;20097;-73
2022/07/12 03:19:48;;;;;;;49.47;46.85;;;;;;;11.83;75.42;101246.56;5044129;28;20514;-74
2022/07/12 03:22:13;;;;;;;57.45;54.40;;;;;;;11.93;77.32;101250.16;5040707;28;20041;-74
2022/07/12 03:24:39;;;;;;;26.88;25.33;;;;;;;12.05;76.51;101256.31;5045079;28;20035;-73
2022/07/12 03:27:05;;;;;;;44.50;42.00;;;;;;;12.15;74.04;101257.16;5045816;28;20774;-73
2022/07/12 03:29:30;;;;;;;27.65;26.20;;;;;;;12.15;75.92;101262.47;5046383;28;20032;-74
2022/07/12 03:31:55;;;;;;;31.55;29.83;;;;;;;12.20;76.40;101260.69;5047740;28;20029;-74
2022/07/12 03:34:21;;;;;;;59.97;56.97;;;;;;;12.21;74.13;101262.47;5075325;28;20037;-74
2022/07/12 03:36:46;;;;;;;66.63;63.33;;;;;;;12.27;74.81;101259.81;5044083;28;20041;-73
2022/07/12 03:39:11;;;;;;;117.35;111.45;;;;;;;12.33;75.42;101266.84;5041171;28;20056;-73
2022/07/12 03:41:37;;;;;;;43.13;40.78;;;;;;;12.42;74.87;101266.84;5040984;28;20046;-73
2022/07/12 03:44:03;;;;;;;50.95;48.47;;;;;;;12.51;75.07;101268.59;5048516;28;20040;-73
2022/07/12 03:46:28;;;;;;;52.78;50.22;;;;;;;12.58;75.42;101257.09;5043729;28;20032;-73
2022/07/12 03:48:53;;;;;;;49.13;46.47;;;;;;;12.65;76.04;101263.25;5042727;28;20057;-74
2022/07/12 03:51:19;;;;;;;27.95;26.08;;;;;;;12.70;78.01;101265.00;5044230;28;20047;-74
2022/07/12 03:53:44;;;;;;;36.85;34.92;;;;;;;12.75;78.97;101269.41;5041682;28;20053;-74
2022/07/12 03:57:13;;;;;;;40.58;38.42;;;;;;;12.78;77.54;101264.09;5044643;28;20028;-74
2022/07/12 03:58:55;;;;;;;47.50;45.10;;;;;;;12.87;76.50;101262.31;5039255;28;20036;-74
2022/07/12 04:01:20;;;;;;;141.38;134.68;;;;;;;12.96;78.90;101260.50;5043827;28;20029;-74
2022/07/12 04:03:45;;;;;;;363.52;344.92;;;;;;;13.02;78.69;101266.66;5043288;28;20043;-73
2022/07/12 04:06:11;;;;;;;252.20;240.10;;;;;;;13.07;80.24;101267.53;5043749;28;20036;-74
2022/07/12 04:08:36;;;;;;;146.90;139.95;;;;;;;13.11;80.73;101263.94;5035206;28;20047;-74
2022/07/12 04:11:01;;;;;;;94.60;90.25;;;;;;;13.23;79.75;101270.06;5042136;28;20041;-74
2022/07/12 04:13:27;;;;;;;142.18;135.23;;;;;;;13.27;82.39;101271.88;5041251;28;20051;-74
2022/07/12 04:15:52;;;;;;;76.10;72.50;;;;;;;13.36;80.02;101274.44;5046266;28;20018;-73
2022/07/12 04:18:17;;;;;;;66.53;63.28;;;;;;;13.42;82.15;101273.56;5043979;28;20039;-74
2022/07/12 04:20:43;;;;;;;68.75;65.50;;;;;;;13.51;81.99;101279.66;5041012;28;20108;-74
2022/07/12 04:23:09;;;;;;;243.40;231.60;;;;;;;13.58;81.44;101281.41;5042420;28;20033;-74
2022/07/12 04:25:34;;;;;;;266.08;252.73;;;;;;;13.59;83.77;101266.34;5042232;28;20081;-74
2022/07/12 04:28:00;;;;;;;374.33;353.15;;;;;;;13.66;83.48;101275.16;5041848;28;20448;-74
2022/07/12 04:30:28;;;;;;;369.45;350.17;;;;;;;13.73;82.42;101277.75;5046663;28;20460;-74
2022/07/12 04:32:54;;;;;;;323.23;306.85;;;;;;;13.84;82.65;101275.03;5038726;28;20049;-74
2022/07/12 04:35:19;;;;;;;253.23;241.23;;;;;;;13.94;83.37;101273.19;5044157;28;20038;-74
2022/07/12 04:37:44;;;;;;;90.32;85.93;;;;;;;14.02;82.42;101280.19;5041427;28;20041;-74
2022/07/12 04:40:10;;;;;;;262.02;249.57;;;;;;;14.10;82.91;101287.22;5041186;28;20075;-74
2022/07/12 04:42:36;;;;;;;502.60;474.77;;;;;;;14.15;82.34;101293.38;5043168;28;20040;-74
2022/07/12 04:45:01;;;;;;;383.98;363.65;;;;;;;14.16;82.00;101298.63;5047173;28;20048;-74
2022/07/12 04:47:26;;;;;;;159.05;149.98;;;;;;;14.09;83.38;101298.69;5046973;28;20020;-73
2022/07/12 04:49:52;;;;;;;60.05;56.60;;;;;;;14.09;83.22;101296.91;5046762;28;20055;-74
2022/07/12 04:52:17;;;;;;;23.13;21.85;;;;;;;14.05;83.31;101296.97;5045018;28;20424;-74
2022/07/12 04:54:42;;;;;;;37.50;35.65;;;;;;;14.05;84.16;101287.25;5046542;28;20392;-74
2022/07/12 04:57:07;;;;;;;36.58;34.78;;;;;;;14.14;84.56;101287.16;5047086;28;20720;-74
2022/07/12 04:59:33;;;;;;;23.35;22.15;;;;;;;14.22;83.85;101303.00;5048646;28;20044;-74
2022/07/12 05:01:58;;;;;;;22.88;21.67;;;;;;;14.27;84.50;101285.25;5047593;28;20044;-74
2022/07/12 05:04:23;;;;;;;23.00;21.63;;;;;;;14.30;84.61;101290.53;5048630;28;20040;-74
2022/07/12 05:06:49;;;;;;;24.45;23.13;;;;;;;14.33;85.55;101287.88;5048450;28;20048;-74
2022/07/12 05:09:15;;;;;;;22.77;21.45;;;;;;;14.42;85.34;101293.09;5047000;28;20048;-74
2022/07/12 05:11:40;;;;;;;22.65;21.30;;;;;;;14.56;84.85;101300.06;5047577;28;20057;-74
2022/07/12 05:14:05;;;;;;;21.05;19.95;;;;;;;14.72;83.27;101301.66;5048655;28;20052;-74
2022/07/12 05:16:31;;;;;;;22.02;20.73;;;;;;;14.81;82.19;101296.25;5042047;28;20049;-74
2022/07/12 05:18:56;;;;;;;26.20;24.85;;;;;;;14.87;80.91;101300.63;5040429;28;20049;-74
2022/07/12 05:21:22;;;;;;;23.10;21.80;;;;;;;15.01;80.58;101303.09;5049361;28;20037;-75
2022/07/12 05:23:47;;;;;;;23.70;22.27;;;;;;;15.11;79.39;101305.63;5042398;28;20128;-74
2022/07/12 05:26:12;;;;;;;24.67;23.17;;;;;;;15.17;78.90;101306.44;5041390;28;20037;-74
2022/07/12 05:28:37;;;;;;;22.77;21.52;;;;;;;15.22;78.26;101302.84;5041374;28;20086;-74
2022/07/12 05:31:03;;;;;;;19.63;18.52;;;;;;;15.26;78.17;101309.88;5040090;28;20041;-74
2022/07/12 05:33:28;;;;;;;23.67;22.38;;;;;;;15.32;77.54;101315.09;5042463;28;20166;-74
2022/07/12 05:35:54;;;;;;;23.05;21.85;;;;;;;15.40;76.64;101311.47;5039512;28;20052;-74
2022/07/12 05:38:19;;;;;;;19.65;18.55;;;;;;;15.44;76.41;101311.41;5037631;28;20045;-74
2022/07/12 05:40:44;;;;;;;17.02;16.08;;;;;;;15.49;75.52;101316.69;5049090;28;20021;-74
2022/07/12 05:43:10;;;;;;;20.10;18.75;;;;;;;15.61;75.23;101320.94;5049586;28;20108;-74
2022/07/12 05:45:35;;;;;;;17.38;16.17;;;;;;;15.70;74.15;101323.50;5047563;28;20029;-75
2022/07/12 05:48:00;;;;;;;22.52;21.33;;;;;;;15.82;73.44;101322.44;5043244;28;20147;-74
2022/07/12 05:50:26;;;;;;;13.05;12.23;;;;;;;15.95;71.99;101322.19;5039362;28;20037;-75
2022/07/12 05:55:35;;;;;;;11.32;10.63;;;;;;;16.12;71.00;101324.63;5042792;28;20043;-75
2022/07/12 05:58:00;;;;;;;11.15;10.55;;;;;;;16.23;69.60;101321.78;5043305;28;20037;-75
2022/07/12 06:00:26;;;;;;;11.52;10.85;;;;;;;16.35;69.30;101331.34;5051652;28;20117;-74
2022/07/12 06:02:51;;;;;;;9.90;9.30;;;;;;;16.44;68.17;101332.03;5039291;28;20407;-74
2022/07/12 06:05:16;;;;;;;10.52;9.82;;;;;;;16.52;67.79;101326.59;5041203;28;20083;-74
2022/07/12 06:07:42;;;;;;;9.85;9.23;;;;;;;16.60;67.21;101323.78;5043750;28;20044;-74
2022/07/12 06:10:07;;;;;;;41.88;39.67;;;;;;;16.75;67.11;101334.16;5048413;28;20086;-74
2022/07/12 06:12:32;;;;;;;39.33;37.33;;;;;;;16.83;66.55;101328.72;5040140;28;20048;-74
2022/07/12 06:14:58;;;;;;;22.45;21.20;;;;;;;16.97;65.70;101326.66;5074083;28;20043;-76
2022/07/12 06:17:23;;;;;;;22.02;20.92;;;;;;;17.08;65.05;101330.00;5039230;28;20041;-73
2022/07/12 06:19:49;;;;;;;25.65;24.20;;;;;;;17.24;65.08;101327.00;5045811;28;20082;-73
2022/07/12 06:22:14;;;;;;;11.48;10.77;;;;;;;17.44;64.76;101327.44;5045630;28;20047;-73
2022/07/12 06:24:39;;;;;;;16.63;15.73;;;;;;;17.57;64.05;101332.50;5047196;28;20033;-73
2022/07/12 06:27:05;;;;;;;16.80;15.60;;;;;;;17.67;63.07;101336.75;5048069;28;20040;-73
2022/07/12 06:29:30;;;;;;;19.63;18.58;;;;;;;17.80;62.36;101329.34;5046888;28;20072;-73
2022/07/12 06:31:56;;;;;;;18.48;17.52;;;;;;;17.89;62.25;101331.81;5047964;28;20025;-72
2022/07/12 06:34:21;;;;;;;9.07;8.48;;;;;;;17.98;60.92;101333.41;5043344;28;20380;-72
2022/07/12 06:36:46;;;;;;;10.18;9.57;;;;;;;18.10;60.66;101335.75;5041862;28;20525;-73
2022/07/12 06:39:12;;;;;;;11.48;10.70;;;;;;;18.23;59.42;101337.19;5049481;28;20024;-73
2022/07/12 06:41:37;;;;;;;13.48;12.68;;;;;;;18.36;58.54;101332.41;5049436;28;20048;-73
2022/07/12 06:44:03;;;;;;;15.20;14.23;;;;;;;18.42;58.89;101334.06;5047621;28;20123;-73
2022/07/12 06:46:28;;;;;;;11.48;10.57;;;;;;;18.51;58.10;101333.81;5076767;28;20029;-73
2022/07/12 06:48:53;;;;;;;11.57;10.75;;;;;;;18.66;57.54;101333.44;5050074;28;20052;-73
2022/07/12 06:51:19;;;;;;;9.07;8.38;;;;;;;18.74;56.28;101330.53;5045914;28;20041;-73
2022/07/12 06:53:44;;;;;;;15.40;14.50;;;;;;;18.77;56.93;101331.34;5054890;28;20048;-73
2022/07/12 06:56:09;;;;;;;20.83;19.77;;;;;;;18.97;56.87;101335.28;5043268;28;20042;-73
2022/07/12 06:58:35;;;;;;;15.10;14.27;;;;;;;19.15;55.81;101328.50;5042809;28;20041;-73
2022/07/12 07:01:00;;;;;;;19.88;18.80;;;;;;;19.14;55.14;101335.66;5044705;28;20033;-73
2022/07/12 07:03:25;;;;;;;15.60;14.68;;;;;;;19.27;54.72;101338.88;5041984;28;20044;-73
2022/07/12 07:05:51;;;;;;;12.57;11.32;;;;;;;19.35;54.31;101334.16;5045635;28;20048;-73
2022/07/12 07:08:16;;;;;;;11.48;10.57;;;;;;;19.49;53.69;101333.75;5045811;28;20041;-73
2022/07/12 07:10:42;;;;;;;6.93;6.07;;;;;;;19.67;51.21;101338.56;5041683;28;20040;-73
2022/07/12 07:13:10;;;;;;;7.70;7.20;;;;;;;19.79;52.02;101334.63;5040966;28;20057;-73
2022/07/12 07:15:35;;;;;;;7.60;7.00;;;;;;;20.00;50.82;101342.91;5045198;28;20055;-73
2022/07/12 07:18:01;;;;;;;6.35;5.95;;;;;;;20.08;49.39;101339.06;5041940;28;20408;-73
2022/07/12 07:20:26;;;;;;;10.25;6.63;;;;;;;20.18;48.49;101336.09;5058974;22;20041;-72
2022/07/12 07:22:51;;;;;;;9.82;8.95;;;;;;;20.27;48.69;101336.63;5024348;28;20049;-73
2022/07/12 07:25:17;;;;;;;9.27;8.68;;;;;;;20.32;47.59;101334.66;5027052;28;20049;-73
2022/07/12 07:27:44;;;;;;;9.65;9.05;;;;;;;20.38;49.03;101336.25;5025153;28;20044;-73
2022/07/12 07:32:53;;;;;;;6.85;6.15;;;;;;;20.62;45.91;101326.56;5023547;28;20052;-73
2022/07/12 07:35:19;;;;;;;5.05;4.75;;;;;;;20.63;45.18;101330.97;5024256;28;20029;-73
2022/07/12 07:37:44;;;;;;;7.80;7.07;;;;;;;20.65;45.49;101336.28;5025984;28;20386;-73
2022/07/12 07:40:10;;;;;;;5.03;4.60;;;;;;;20.75;44.98;101333.22;5024848;28;20443;-74
2022/07/12 07:42:35;;;;;;;5.40;5.00;;;;;;;20.76;44.35;101339.47;5025710;28;20111;-73
2022/07/12 07:45:01;;;;;;;4.93;4.40;;;;;;;20.77;44.10;101335.84;5027004;28;20040;-73
2022/07/12 07:47:27;;;;;;;5.97;5.47;;;;;;;20.87;43.40;101329.22;5035914;28;20104;-73
2022/07/12 07:49:55;;;;;;;5.50;5.13;;;;;;;21.01;44.27;101326.00;5037708;28;20061;-72
2022/07/12 07:52:21;;;;;;;5.80;5.40;;;;;;;21.16;43.70;101330.81;5019693;28;20026;-73
2022/07/12 07:54:46;;;;;;;6.00;5.40;;;;;;;21.12;43.73;101328.31;5026527;28;20030;-73
2022/07/12 07:57:11;;;;;;;5.22;4.93;;;;;;;21.16;44.44;101320.06;5023350;28;20396;-73
2022/07/12 07:59:36;;;;;;;5.75;5.25;;;;;;;21.37;42.84;101325.56;5022575;28;20431;-73
2022/07/12 08:02:02;;;;;;;6.05;5.65;;;;;;;21.38;42.78;101328.25;5021181;28;20511;-73
2022/07/12 08:04:27;;;;;;;4.90;4.50;;;;;;;21.29;41.87;101331.22;5023742;28;20041;-73
2022/07/12 08:06:53;;;;;;;4.55;4.25;;;;;;;21.37;40.93;101326.44;5021066;28;20389;-73
2022/07/12 08:09:18;;;;;;;4.97;4.57;;;;;;;21.40;41.41;101320.97;5024072;28;20558;-73
2022/07/12 08:11:43;;;;;;;11.65;5.18;;;;;;;21.50;41.69;101320.63;5023007;28;20499;-73
2022/07/12 08:14:09;;;;;;;5.50;5.00;;;;;;;21.57;41.48;101323.03;5022080;28;20565;-73
2022/07/12 08:16:35;;;;;;;4.75;4.45;;;;;;;21.67;41.71;101327.09;5027646;28;20408;-73
2022/07/12 08:19:01;;;;;;;4.25;3.75;;;;;;;21.71;40.94;101318.91;5026506;28;20100;-73
2022/07/12 08:21:26;;;;;;;6.47;4.00;;;;;;;21.82;40.52;101324.72;5022516;28;20037;-73
2022/07/12 08:23:53;;;;;;;3.83;3.53;;;;;;;21.82;40.21;101320.25;5026263;28;20488;-73
2022/07/12 08:26:18;;;;;;;6.53;4.18;;;;;;;21.80;40.99;101318.56;5021957;28;20037;-73
2022/07/12 08:28:43;;;;;;;3.70;3.30;;;;;;;22.02;39.94;101313.16;5027172;28;20048;-73
2022/07/12 08:31:09;;;;;;;3.17;2.97;;;;;;;21.96;39.04;101318.81;5023410;28;20045;-73
2022/07/12 08:33:35;;;;;;;3.42;2.22;;;;;;;21.95;38.22;101311.66;5021265;28;20046;-73
2022/07/12 08:36:00;;;;;;;3.15;2.85;;;;;;;21.94;37.98;101302.72;5019126;28;20042;-73
2022/07/12 08:38:25;;;;;;;4.68;4.28;;;;;;;22.07;38.72;101298.59;5033112;28;20055;-73
2022/07/12 08:40:51;;;;;;;3.78;3.33;;;;;;;22.22;38.04;101294.41;5021499;28;20033;-73
2022/07/12 08:43:16;;;;;;;3.40;3.10;;;;;;;22.36;37.19;101295.66;5024404;28;20052;-73
2022/07/12 08:45:41;;;;;;;2.72;2.53;;;;;;;22.26;37.36;101300.53;5036779;28;20033;-73
2022/07/12 08:48:07;;;;;;;5.30;2.67;;;;;;;22.45;37.44;101300.59;5035003;28;20061;-73
2022/07/12 08:50:33;;;;;;;2.92;2.63;;;;;;;22.58;36.61;101295.56;5033360;28;20096;-73
2022/07/12 08:52:59;;;;;;;4.32;3.92;;;;;;;22.72;37.16;101303.91;5038632;28;20125;-73
2022/07/12 08:55:30;;;;;;;3.65;2.58;;;;;;;22.83;35.76;101301.63;5034026;28;20072;-73
2022/07/12 08:57:57;;;;;;;2.65;2.40;;;;;;;22.70;35.45;101306.66;5029106;28;20057;-73
2022/07/12 09:00:24;;;;;;;3.08;2.55;;;;;;;22.53;36.05;101298.44;5020710;28;20493;-73
2022/07/12 09:02:57;;;;;;;4.72;3.30;;;;;;;22.56;36.20;101298.34;5022336;28;20038;-73
2022/07/12 09:05:31;;;;;;;3.25;2.95;;;;;;;22.78;36.07;101294.69;5021008;28;20504;-73
2022/07/12 09:08:10;;;;;;;2.92;2.63;;;;;;;23.01;35.80;101308.03;5020351;28;20034;-73
2022/07/12 09:10:53;;;;;;;3.40;3.20;;;;;;;23.14;35.13;101301.13;5023684;28;20508;-73
2022/07/12 09:13:18;;;;;;;2.63;2.30;;;;;;;23.17;35.26;101305.50;5026898;28;20045;-73
2022/07/12 09:15:46;;;;;;;3.22;2.80;;;;;;;23.18;36.01;101313.47;5029764;28;20037;-73
2022/07/12 09:18:16;;;;;;;4.75;3.80;;;;;;;23.29;36.08;101298.63;5021269;28;20044;-73
2022/07/12 09:20:43;;;;;;;3.03;2.83;;;;;;;23.61;35.12;101306.06;5022136;28;20488;-73
2022/07/12 09:23:11;;;;;;;2.88;2.63;;;;;;;23.53;34.93;101302.88;5018904;28;20099;-73
2022/07/12 09:25:37;;;;;;;5.03;4.72;;;;;;;23.56;35.95;101302.72;5034639;28;20040;-73
2022/07/12 09:28:04;;;;;;;3.20;2.67;;;;;;;23.66;34.81;101299.56;5029857;28;20091;-73
2022/07/12 09:30:30;;;;;;;3.15;2.85;;;;;;;23.42;34.54;101305.19;5032428;28;20041;-73
2022/07/12 09:36:13;;;;;;;2.88;2.67;;;;;;;23.01;35.38;101302.63;5029690;28;20037;-73
2022/07/12 09:39:00;;;;;;;3.42;2.88;;;;;;;22.97;35.12;101293.81;5032256;28;20118;-73
2022/07/12 09:41:26;;;;;;;2.88;2.67;;;;;;;23.31;35.28;101291.38;5027720;28;20115;-73
2022/07/12 09:43:52;;;;;;;3.88;2.83;;;;;;;23.61;34.59;101294.44;5022314;28;20128;-73
2022/07/12 09:46:17;;;;;;;6.07;2.70;;;;;;;23.63;33.61;101285.31;5021637;28;20111;-73
2022/07/12 09:48:44;;;;;;;3.75;2.70;;;;;;;23.81;33.81;101277.28;5020665;28;20049;-73
2022/07/12 09:51:14;;;;;;;2.50;2.30;;;;;;;23.55;34.03;101284.81;5019430;28;20038;-73
2022/07/12 09:53:47;;;;;;;3.40;3.20;;;;;;;23.31;35.13;101283.28;5022250;28;20103;-73
2022/07/12 09:56:14;;;;;;;3.33;3.10;;;;;;;23.56;35.00;101281.16;5020146;28;20041;-73
2022/07/12 09:58:47;;;;;;;3.58;2.78;;;;;;;23.83;33.94;101280.78;5024071;28;20095;-73
2022/07/12 10:01:15;;;;;;;8.40;3.30;;;;;;;24.03;33.85;101269.88;5023670;28;20083;-74
2022/07/12 10:03:42;;;;;;;2.65;2.45;;;;;;;24.22;32.98;101290.53;5019829;28;20044;-74
2022/07/12 10:06:09;;;;;;;3.53;2.75;;;;;;;24.17;33.52;101298.84;5020849;28;20543;-73
2022/07/12 10:08:34;;;;;;;3.13;2.00;;;;;;;23.62;33.22;101294.34;5019955;28;20037;-74
2022/07/12 10:11:00;;;;;;;3.05;2.75;;;;;;;23.66;33.35;101291.50;5025031;28;20416;-74
2022/07/12 10:13:26;;;;;;;3.20;2.90;;;;;;;23.87;33.00;101284.19;5025266;28;20045;-74
2022/07/12 10:15:59;;;;;;;3.03;2.72;;;;;;;24.02;32.96;101284.31;5023297;28;20080;-74
2022/07/12 10:18:24;;;;;;;2.90;2.70;;;;;;;24.13;33.45;101281.09;5024138;28;20041;-73
2022/07/12 10:20:50;;;;;;;3.75;3.45;;;;;;;24.30;31.40;101277.50;5025167;28;20480;-73
2022/07/12 10:23:33;;;;;;;2.72;2.53;;;;;;;24.27;31.86;101273.16;5027341;28;20408;-72
2022/07/12 10:25:59;;;;;;;4.18;3.70;;;;;;;24.51;31.81;101285.47;5027757;28;20034;-73
2022/07/12 10:28:59;;;;;;;2.55;2.35;;;;;;;24.32;31.36;101281.00;5029396;28;20045;-73
2022/07/12 10:31:28;;;;;;;2.95;2.72;;;;;;;24.30;31.22;101282.03;5027889;28;20034;-73
2022/07/12 10:34:24;;;;;;;2.83;2.63;;;;;;;24.32;31.07;101272.91;5028719;28;20136;-73
2022/07/12 10:36:55;;;;;;;2.78;2.47;;;;;;;24.51;30.56;101282.78;5027013;28;20120;-74
2022/07/12 10:39:22;;;;;;;2.65;2.45;;;;;;;24.44;30.69;101280.41;5022548;28;20041;-73
2022/07/12 10:42:06;;;;;;;2.85;2.65;;;;;;;24.72;30.98;101276.25;5021593;28;20041;-73
2022/07/12 10:44:37;;;;;;;2.47;2.28;;;;;;;24.65;30.36;101294.59;5028057;28;20775;-73
2022/07/12 10:47:04;;;;;;;2.72;2.53;;;;;;;24.61;30.95;101276.81;5025901;28;20038;-73
2022/07/12 10:49:31;;;;;;;2.75;2.55;;;;;;;24.61;30.69;101278.66;5023348;28;20152;-73
2022/07/12 10:52:11;;;;;;;2.72;2.53;;;;;;;24.85;30.42;101274.63;5024640;28;20029;-74
2022/07/12 10:54:41;;;;;;;2.90;2.70;;;;;;;25.14;31.16;101282.97;5023468;28;20038;-73
2022/07/12 10:57:07;;;;;;;3.20;2.58;;;;;;;25.17;29.94;101276.56;5027420;28;20059;-74
2022/07/12 10:59:35;;;;;;;3.42;2.58;;;;;;;25.18;30.14;101260.28;5028405;28;20038;-73
2022/07/12 11:02:00;;;;;;;4.90;2.80;;;;;;;25.40;30.22;101277.97;5026167;28;20029;-74
2022/07/12 11:04:29;;;;;;;2.85;2.65;;;;;;;25.19;29.12;101286.31;5028983;28;20385;-73
2022/07/12 11:06:57;;;;;;;3.28;2.72;;;;;;;25.15;29.56;101271.19;5028698;28;20021;-74
2022/07/12 11:09:23;;;;;;;7.97;3.00;;;;;;;25.38;28.97;101256.44;5026190;28;20122;-73
2022/07/12 11:11:50;;;;;;;8.30;3.33;;;;;;;25.51;28.76;101272.81;5023527;28;20027;-74
2022/07/12 11:14:32;;;;;;;2.78;2.58;;;;;;;25.49;29.01;101263.91;5023330;28;20049;-74
2022/07/12 11:16:59;;;;;;;3.65;3.35;;;;;;;25.65;28.13;101251.28;5021335;28;20048;-73
2022/07/12 11:19:28;;;;;;;3.85;3.42;;;;;;;25.88;29.01;101266.19;5022394;28;20073;-74
2022/07/12 11:21:58;;;;;;;3.33;3.03;;;;;;;25.67;27.98;101257.47;5022171;28;20033;-74